sensor_id;sensor_type;location;lat;lon;timestamp;P1;durP1;ratioP1;P2;durP2;ratioP2
25649;SDS011;13505;45.196;5.696;2023-07-09T04:31:23;10.73;;;7.70;;
25649;SDS011;13505;45.196;5.696;2023-07-09T04:36:13;12.95;;;6.70;;
25649;SDS011;13505;45.196;5.696;2023-07-09T04:41:03;13.77;;;7.57;;
25649;SDS011;13505;45.196;5.696;2023-07-09T04:45:54;11.38;;;6.97;;
25649;SDS011;13505;45.196;5.696;2023-07-09T04:50:44;15.35;;;6.85;;
25649;SDS011;13505;45.196;5.696;2023-07-09T04:55:40;11.75;;;7.20;;
25649;SDS011;13505;45.196;5.696;2023-07-09T05:00:30;13.05;;;6.97;;
25649;SDS011;13505;45.196;5.696;2023-07-09T05:05:20;11.35;;;7.40;;
25649;SDS011;13505;45.196;5.696;2023-07-09T05:10:10;11.60;;;6.68;;
25649;SDS011;13505;45.196;5.696;2023-07-09T05:15:01;15.23;;;7.22;;
25649;SDS011;13505;45.196;5.696;2023-07-09T05:19:51;10.32;;;6.88;;
25649;SDS011;13505;45.196;5.696;2023-07-09T05:24:41;12.93;;;7.10;;
25649;SDS011;13505;45.196;5.696;2023-07-09T05:29:32;12.48;;;6.80;;
25649;SDS011;13505;45.196;5.696;2023-07-09T05:34:22;17.13;;;7.00;;
25649;SDS011;13505;45.196;5.696;2023-07-09T05:39:13;10.47;;;6.47;;
25649;SDS011;13505;45.196;5.696;2023-07-09T05:44:03;8.53;;;6.50;;
25649;SDS011;13505;45.196;5.696;2023-07-09T05:48:54;11.48;;;6.82;;
25649;SDS011;13505;45.196;5.696;2023-07-09T05:53:44;14.03;;;7.23;;
25649;SDS011;13505;45.196;5.696;2023-07-09T05:58:34;11.10;;;6.83;;
25649;SDS011;13505;45.196;5.696;2023-07-09T06:03:25;14.40;;;7.18;;
25649;SDS011;13505;45.196;5.696;2023-07-09T06:08:16;14.15;;;7.00;;
25649;SDS011;13505;45.196;5.696;2023-07-09T06:13:07;17.05;;;8.00;;
25649;SDS011;13505;45.196;5.696;2023-07-09T06:17:57;11.18;;;7.18;;
25649;SDS011;13505;45.196;5.696;2023-07-09T06:22:48;12.52;;;7.53;;
25649;SDS011;13505;45.196;5.696;2023-07-09T06:27:38;10.38;;;7.15;;
25649;SDS011;13505;45.196;5.696;2023-07-09T06:32:28;14.43;;;7.33;;
25649;SDS011;13505;45.196;5.696;2023-07-09T06:37:19;13.32;;;7.32;;
25649;SDS011;13505;45.196;5.696;2023-07-09T06:42:09;13.45;;;7.10;;
25649;SDS011;13505;45.196;5.696;2023-07-09T06:46:59;14.82;;;7.22;;
25649;SDS011;13505;45.196;5.696;2023-07-09T06:51:49;12.30;;;7.40;;
25649;SDS011;13505;45.196;5.696;2023-07-09T06:56:40;16.60;;;6.70;;
25649;SDS011;13505;45.196;5.696;2023-07-09T07:01:30;11.35;;;7.18;;
25649;SDS011;13505;45.196;5.696;2023-07-09T07:06:20;10.57;;;6.10;;
25649;SDS011;13505;45.196;5.696;2023-07-09T07:11:11;16.48;;;6.18;;
25649;SDS011;13505;45.196;5.696;2023-07-09T07:16:05;14.63;;;6.68;;
25649;SDS011;13505;45.196;5.696;2023-07-09T07:20:58;13.82;;;6.47;;
25649;SDS011;13505;45.196;5.696;2023-07-09T07:25:49;16.55;;;7.22;;
25649;SDS011;13505;45.196;5.696;2023-07-09T07:30:39;9.63;;;6.70;;
25649;SDS011;13505;45.196;5.696;2023-07-09T07:35:30;10.37;;;6.87;;
25649;SDS011;13505;45.196;5.696;2023-07-09T07:40:20;14.82;;;6.50;;
25649;SDS011;13505;45.196;5.696;2023-07-09T07:45:11;11.60;;;7.22;;
25649;SDS011;13505;45.196;5.696;2023-07-09T07:50:01;10.57;;;7.18;;
25649;SDS011;13505;45.196;5.696;2023-07-09T07:54:52;13.23;;;6.93;;
25649;SDS011;13505;45.196;5.696;2023-07-09T07:59:42;10.68;;;6.93;;
25649;SDS011;13505;45.196;5.696;2023-07-09T08:04:32;12.00;;;6.93;;
25649;SDS011;13505;45.196;5.696;2023-07-09T08:09:23;11.25;;;7.70;;
25649;SDS011;13505;45.196;5.696;2023-07-09T08:14:13;11.47;;;6.93;;
25649;SDS011;13505;45.196;5.696;2023-07-09T08:19:03;11.63;;;7.10;;
25649;SDS011;13505;45.196;5.696;2023-07-09T08:23:54;13.52;;;7.10;;
25649;SDS011;13505;45.196;5.696;2023-07-09T08:28:44;16.00;;;6.80;;
25649;SDS011;13505;45.196;5.696;2023-07-09T08:33:35;10.90;;;5.83;;
25649;SDS011;13505;45.196;5.696;2023-07-09T08:38:26;12.25;;;6.60;;
25649;SDS011;13505;45.196;5.696;2023-07-09T08:48:42;12.30;;;5.82;;
25649;SDS011;13505;45.196;5.696;2023-07-09T08:58:47;13.32;;;5.88;;
25649;SDS011;13505;45.196;5.696;2023-07-09T09:03:41;12.48;;;5.90;;
25649;SDS011;13505;45.196;5.696;2023-07-09T09:13:45;11.18;;;6.43;;
25649;SDS011;13505;45.196;5.696;2023-07-09T09:18:37;12.48;;;6.18;;
25649;SDS011;13505;45.196;5.696;2023-07-09T09:23:41;11.38;;;6.55;;
25649;SDS011;13505;45.196;5.696;2023-07-09T09:28:36;12.43;;;6.45;;
25649;SDS011;13505;45.196;5.696;2023-07-09T09:33:36;9.63;;;6.22;;
25649;SDS011;13505;45.196;5.696;2023-07-09T09:38:35;10.60;;;5.90;;
25649;SDS011;13505;45.196;5.696;2023-07-09T09:43:31;16.80;;;5.93;;
25649;SDS011;13505;45.196;5.696;2023-07-09T09:48:28;12.45;;;6.03;;
25649;SDS011;13505;45.196;5.696;2023-07-09T09:53:22;13.68;;;6.88;;
25649;SDS011;13505;45.196;5.696;2023-07-09T09:58:14;12.15;;;6.63;;
25649;SDS011;13505;45.196;5.696;2023-07-09T10:03:06;7.55;;;5.55;;
25649;SDS011;13505;45.196;5.696;2023-07-09T10:08:02;14.40;;;6.05;;
25649;SDS011;13505;45.196;5.696;2023-07-09T10:13:02;11.55;;;6.03;;
25649;SDS011;13505;45.196;5.696;2023-07-09T10:23:48;7.88;;;5.85;;
25649;SDS011;13505;45.196;5.696;2023-07-09T10:34:25;11.48;;;6.80;;
25649;SDS011;13505;45.196;5.696;2023-07-09T10:39:24;8.85;;;6.10;;
25649;SDS011;13505;45.196;5.696;2023-07-09T10:44:20;15.43;;;6.57;;
25649;SDS011;13505;45.196;5.696;2023-07-09T10:49:15;9.57;;;6.60;;
25649;SDS011;13505;45.196;5.696;2023-07-09T10:59:27;8.65;;;6.40;;
25649;SDS011;13505;45.196;5.696;2023-07-09T11:04:30;10.63;;;6.05;;
25649;SDS011;13505;45.196;5.696;2023-07-09T11:09:32;13.25;;;6.65;;
25649;SDS011;13505;45.196;5.696;2023-07-09T11:14:28;12.27;;;6.47;;
25649;SDS011;13505;45.196;5.696;2023-07-09T11:19:23;8.50;;;6.70;;
25649;SDS011;13505;45.196;5.696;2023-07-09T11:24:26;11.75;;;6.25;;
25649;SDS011;13505;45.196;5.696;2023-07-09T11:29:23;12.23;;;6.35;;
25649;SDS011;13505;45.196;5.696;2023-07-09T11:39:16;10.40;;;6.22;;
25649;SDS011;13505;45.196;5.696;2023-07-09T11:44:23;7.63;;;6.00;;
25649;SDS011;13505;45.196;5.696;2023-07-09T11:49:21;9.50;;;6.38;;
25649;SDS011;13505;45.196;5.696;2023-07-09T11:54:15;8.88;;;6.47;;
25649;SDS011;13505;45.196;5.696;2023-07-09T11:59:10;14.25;;;5.93;;
25649;SDS011;13505;45.196;5.696;2023-07-09T12:04:01;7.82;;;6.00;;
25649;SDS011;13505;45.196;5.696;2023-07-09T12:08:53;8.23;;;6.32;;
25649;SDS011;13505;45.196;5.696;2023-07-09T12:13:44;11.32;;;6.22;;
25649;SDS011;13505;45.196;5.696;2023-07-09T12:18:35;12.27;;;6.93;;
25649;SDS011;13505;45.196;5.696;2023-07-09T12:23:26;10.40;;;6.53;;
25649;SDS011;13505;45.196;5.696;2023-07-09T12:28:19;11.32;;;6.50;;
25649;SDS011;13505;45.196;5.696;2023-07-09T12:33:12;12.30;;;7.05;;
25649;SDS011;13505;45.196;5.696;2023-07-09T12:38:27;12.60;;;6.97;;
25649;SDS011;13505;45.196;5.696;2023-07-09T12:43:30;10.82;;;7.10;;
25649;SDS011;13505;45.196;5.696;2023-07-09T12:48:21;12.95;;;6.43;;
25649;SDS011;13505;45.196;5.696;2023-07-09T12:53:16;9.93;;;6.43;;
25649;SDS011;13505;45.196;5.696;2023-07-09T13:03:12;10.77;;;6.53;;
25649;SDS011;13505;45.196;5.696;2023-07-09T13:08:04;10.88;;;6.38;;
25649;SDS011;13505;45.196;5.696;2023-07-09T13:12:57;11.75;;;6.97;;
25649;SDS011;13505;45.196;5.696;2023-07-09T13:17:56;13.18;;;6.30;;
25649;SDS011;13505;45.196;5.696;2023-07-09T13:22:50;9.63;;;6.90;;
25649;SDS011;13505;45.196;5.696;2023-07-09T13:27:41;8.48;;;6.18;;
25649;SDS011;13505;45.196;5.696;2023-07-09T13:32:31;12.65;;;6.82;;
25649;SDS011;13505;45.196;5.696;2023-07-09T13:37:22;17.40;;;7.17;;
25649;SDS011;13505;45.196;5.696;2023-07-09T13:42:13;17.63;;;6.47;;
25649;SDS011;13505;45.196;5.696;2023-07-09T13:47:13;10.95;;;7.38;;
25649;SDS011;13505;45.196;5.696;2023-07-09T13:52:08;10.23;;;6.60;;
25649;SDS011;13505;45.196;5.696;2023-07-09T13:57:06;10.75;;;7.13;;
25649;SDS011;13505;45.196;5.696;2023-07-09T14:02:01;11.20;;;6.68;;
25649;SDS011;13505;45.196;5.696;2023-07-09T14:06:51;6.93;;;6.07;;
25649;SDS011;13505;45.196;5.696;2023-07-09T14:11:43;8.63;;;6.67;;
25649;SDS011;13505;45.196;5.696;2023-07-09T14:16:36;8.65;;;6.47;;
25649;SDS011;13505;45.196;5.696;2023-07-09T14:21:26;11.82;;;6.47;;
25649;SDS011;13505;45.196;5.696;2023-07-09T14:26:16;12.07;;;6.80;;
25649;SDS011;13505;45.196;5.696;2023-07-09T14:36:12;17.70;;;7.10;;
25649;SDS011;13505;45.196;5.696;2023-07-09T14:41:04;9.53;;;6.47;;
25649;SDS011;13505;45.196;5.696;2023-07-09T14:46:08;11.00;;;6.22;;
25649;SDS011;13505;45.196;5.696;2023-07-09T14:50:58;9.95;;;6.25;;
25649;SDS011;13505;45.196;5.696;2023-07-09T14:55:49;7.13;;;5.73;;
25649;SDS011;13505;45.196;5.696;2023-07-09T15:00:40;13.50;;;7.28;;
25649;SDS011;13505;45.196;5.696;2023-07-09T15:05:31;13.48;;;7.43;;
25649;SDS011;13505;45.196;5.696;2023-07-09T15:10:25;8.90;;;6.57;;
25649;SDS011;13505;45.196;5.696;2023-07-09T15:15:25;9.43;;;6.25;;
25649;SDS011;13505;45.196;5.696;2023-07-09T15:20:20;7.72;;;6.53;;
25649;SDS011;13505;45.196;5.696;2023-07-09T15:25:19;8.90;;;6.45;;
25649;SDS011;13505;45.196;5.696;2023-07-09T15:30:30;15.88;;;6.63;;
25649;SDS011;13505;45.196;5.696;2023-07-09T15:35:21;9.10;;;6.25;;
25649;SDS011;13505;45.196;5.696;2023-07-09T15:45:16;10.40;;;6.43;;
25649;SDS011;13505;45.196;5.696;2023-07-09T15:50:14;10.38;;;6.93;;
25649;SDS011;13505;45.196;5.696;2023-07-09T15:55:12;10.68;;;6.63;;
25649;SDS011;13505;45.196;5.696;2023-07-09T16:00:12;12.95;;;6.95;;
25649;SDS011;13505;45.196;5.696;2023-07-09T16:05:10;9.38;;;6.50;;
25649;SDS011;13505;45.196;5.696;2023-07-09T16:10:08;9.73;;;6.65;;
25649;SDS011;13505;45.196;5.696;2023-07-09T16:14:58;9.90;;;6.82;;
25649;SDS011;13505;45.196;5.696;2023-07-09T16:19:49;10.60;;;6.80;;
25649;SDS011;13505;45.196;5.696;2023-07-09T16:24:39;12.27;;;6.75;;
25649;SDS011;13505;45.196;5.696;2023-07-09T16:29:32;11.65;;;7.05;;
25649;SDS011;13505;45.196;5.696;2023-07-09T16:34:23;7.32;;;5.85;;
25649;SDS011;13505;45.196;5.696;2023-07-09T16:39:34;17.70;;;7.22;;
25649;SDS011;13505;45.196;5.696;2023-07-09T16:44:30;14.73;;;8.73;;
25649;SDS011;13505;45.196;5.696;2023-07-09T16:54:18;15.55;;;6.78;;
25649;SDS011;13505;45.196;5.696;2023-07-09T16:59:09;14.23;;;7.97;;
25649;SDS011;13505;45.196;5.696;2023-07-09T17:04:00;26.63;;;17.17;;
25649;SDS011;13505;45.196;5.696;2023-07-09T17:08:50;52.90;;;32.28;;
25649;SDS011;13505;45.196;5.696;2023-07-09T17:13:41;130.82;;;86.53;;
25649;SDS011;13505;45.196;5.696;2023-07-09T17:18:31;76.70;;;52.80;;
25649;SDS011;13505;45.196;5.696;2023-07-09T17:23:22;75.78;;;58.70;;
25649;SDS011;13505;45.196;5.696;2023-07-09T17:28:17;80.75;;;65.13;;
25649;SDS011;13505;45.196;5.696;2023-07-09T17:33:09;74.90;;;61.33;;
25649;SDS011;13505;45.196;5.696;2023-07-09T17:38:00;17.27;;;12.40;;
25649;SDS011;13505;45.196;5.696;2023-07-09T17:42:51;14.57;;;9.88;;
25649;SDS011;13505;45.196;5.696;2023-07-09T17:47:41;16.77;;;11.97;;
25649;SDS011;13505;45.196;5.696;2023-07-09T17:52:32;12.10;;;8.13;;
25649;SDS011;13505;45.196;5.696;2023-07-09T17:57:24;9.57;;;6.78;;
25649;SDS011;13505;45.196;5.696;2023-07-09T18:02:20;10.13;;;6.40;;
25649;SDS011;13505;45.196;5.696;2023-07-09T18:07:21;13.48;;;6.57;;
25649;SDS011;13505;45.196;5.696;2023-07-09T18:12:15;13.13;;;6.55;;
25649;SDS011;13505;45.196;5.696;2023-07-09T18:17:15;9.68;;;6.60;;
25649;SDS011;13505;45.196;5.696;2023-07-09T18:22:17;12.63;;;6.82;;
25649;SDS011;13505;45.196;5.696;2023-07-09T18:32:08;13.20;;;6.25;;
25649;SDS011;13505;45.196;5.696;2023-07-09T18:37:07;11.82;;;6.03;;
25649;SDS011;13505;45.196;5.696;2023-07-09T18:41:57;10.48;;;7.22;;
25649;SDS011;13505;45.196;5.696;2023-07-09T18:46:48;15.13;;;6.57;;
25649;SDS011;13505;45.196;5.696;2023-07-09T18:51:40;12.02;;;6.10;;
25649;SDS011;13505;45.196;5.696;2023-07-09T18:56:32;13.57;;;6.30;;
25649;SDS011;13505;45.196;5.696;2023-07-09T19:01:22;15.05;;;5.80;;
25649;SDS011;13505;45.196;5.696;2023-07-09T19:06:13;10.87;;;6.27;;
25649;SDS011;13505;45.196;5.696;2023-07-09T19:11:03;12.77;;;6.38;;
25649;SDS011;13505;45.196;5.696;2023-07-09T19:15:53;11.13;;;6.10;;
25649;SDS011;13505;45.196;5.696;2023-07-09T19:20:44;12.10;;;6.35;;
25649;SDS011;13505;45.196;5.696;2023-07-09T19:25:35;13.02;;;6.35;;
25649;SDS011;13505;45.196;5.696;2023-07-09T19:30:25;14.20;;;6.47;;
25649;SDS011;13505;45.196;5.696;2023-07-09T19:35:21;10.05;;;6.32;;
25649;SDS011;13505;45.196;5.696;2023-07-09T19:40:26;9.25;;;6.47;;
25649;SDS011;13505;45.196;5.696;2023-07-09T19:45:19;10.55;;;5.75;;
25649;SDS011;13505;45.196;5.696;2023-07-09T19:50:16;15.77;;;6.55;;
25649;SDS011;13505;45.196;5.696;2023-07-09T19:55:21;10.10;;;6.57;;
25649;SDS011;13505;45.196;5.696;2023-07-09T20:00:16;13.60;;;6.60;;
25649;SDS011;13505;45.196;5.696;2023-07-09T20:05:12;12.00;;;7.68;;
25649;SDS011;13505;45.196;5.696;2023-07-09T20:10:06;11.90;;;6.72;;
25649;SDS011;13505;45.196;5.696;2023-07-09T20:14:57;14.70;;;6.78;;
25649;SDS011;13505;45.196;5.696;2023-07-09T20:19:47;15.88;;;6.85;;
25649;SDS011;13505;45.196;5.696;2023-07-09T20:24:38;12.15;;;7.85;;
25649;SDS011;13505;45.196;5.696;2023-07-09T20:29:28;10.53;;;6.47;;
25649;SDS011;13505;45.196;5.696;2023-07-09T20:34:19;13.57;;;6.70;;
25649;SDS011;13505;45.196;5.696;2023-07-09T20:39:15;13.18;;;5.97;;
25649;SDS011;13505;45.196;5.696;2023-07-09T20:44:10;15.20;;;6.53;;
25649;SDS011;13505;45.196;5.696;2023-07-09T20:49:06;14.27;;;6.82;;
25649;SDS011;13505;45.196;5.696;2023-07-09T20:54:09;17.73;;;6.43;;
25649;SDS011;13505;45.196;5.696;2023-07-09T20:58:59;13.73;;;6.40;;
25649;SDS011;13505;45.196;5.696;2023-07-09T21:03:50;12.13;;;6.38;;
25649;SDS011;13505;45.196;5.696;2023-07-09T21:08:40;15.18;;;6.88;;
25649;SDS011;13505;45.196;5.696;2023-07-09T21:13:30;13.57;;;6.87;;
25649;SDS011;13505;45.196;5.696;2023-07-09T21:18:21;15.25;;;6.75;;
25649;SDS011;13505;45.196;5.696;2023-07-09T21:23:16;14.05;;;6.68;;
25649;SDS011;13505;45.196;5.696;2023-07-09T21:28:08;10.55;;;6.25;;
25649;SDS011;13505;45.196;5.696;2023-07-09T21:32:59;11.00;;;5.80;;
25649;SDS011;13505;45.196;5.696;2023-07-09T21:37:49;12.15;;;6.10;;
25649;SDS011;13505;45.196;5.696;2023-07-09T21:42:40;14.38;;;6.18;;
25649;SDS011;13505;45.196;5.696;2023-07-09T21:47:31;12.27;;;6.40;;
25649;SDS011;13505;45.196;5.696;2023-07-09T21:52:21;12.57;;;6.47;;
25649;SDS011;13505;45.196;5.696;2023-07-09T21:57:12;10.85;;;6.50;;
